Time;durP1;ratioP1;P1;durP2;ratioP2;P2;SDS_P1;SDS_P2;PMS_P1;PMS_P2;Temp;Humidity;BMP_temperature;BMP_pressure;BME280_temperature;BME280_humidity;BME280_pressure;Samples;Min_cycle;Max_cycle;Signal;HPM_P1;HPM_P2
2022/07/02 00:00:02;;;;;;;;;;;17.00;71.40;;;;;;5072932;28;19974;-58
2022/07/02 00:02:27;;;;;;;;;;;17.00;72.30;;;;;;5072921;28;19991;-57
2022/07/02 00:05:01;;;;;;;;;;;17.00;72.50;;;;;;5071777;28;21012;-59
2022/07/02 00:07:27;;;;;;;;;;;16.90;71.80;;;;;;5072475;28;19962;-56
2022/07/02 00:09:53;;;;;;;;;;;16.90;73.00;;;;;;5072279;28;19912;-57
2022/07/02 00:12:18;;;;;;;;;;;16.80;72.90;;;;;;5072970;28;19909;-58
2022/07/02 00:14:44;;;;;;;;;;;16.80;73.30;;;;;;5072482;28;20046;-58
2022/07/02 00:17:09;;;;;;;;;;;16.70;73.30;;;;;;5072443;28;19921;-58
2022/07/02 00:19:35;;;;;;;;;;;16.70;72.30;;;;;;5072160;28;20011;-58
2022/07/02 00:22:01;;;;;;;;;;;16.70;73.00;;;;;;5072331;28;19931;-58
2022/07/02 00:24:27;;;;;;;;;;;16.60;73.30;;;;;;5072040;28;19908;-58
2022/07/02 00:26:57;;;;;;;;;;;16.60;74.30;;;;;;5072866;28;20379;-58
2022/07/02 00:29:41;;;;;;;;;;;16.60;73.90;;;;;;5072488;28;19994;-59
2022/07/02 00:32:06;;;;;;;;;;;16.60;75.20;;;;;;5053256;28;19954;-57
2022/07/02 00:34:33;;;;;;;;;;;16.50;74.30;;;;;;5071887;28;19912;-58
2022/07/02 00:36:59;;;;;;;;;;;16.50;74.10;;;;;;5072412;28;20009;-57
2022/07/02 00:39:24;;;;;;;;;;;16.50;74.20;;;;;;5072149;28;20359;-58
2022/07/02 00:41:50;;;;;;;;;;;16.50;75.90;;;;;;5071574;28;19913;-58
2022/07/02 00:44:17;;;;;;;;;;;16.50;75.40;;;;;;5072343;28;19920;-57
2022/07/02 00:46:44;;;;;;;;;;;16.50;74.10;;;;;;5071532;28;20679;-58
2022/07/02 00:49:09;;;;;;;;;;;16.40;74.30;;;;;;5071689;28;20030;-57
2022/07/02 00:51:35;;;;;;;;;;;16.40;74.40;;;;;;5071656;28;19995;-58
2022/07/02 00:54:01;;;;;;;;;;;16.40;73.90;;;;;;5071724;28;20008;-58
2022/07/02 00:56:26;;;;;;;;;;;16.40;74.20;;;;;;5071713;28;20388;-57
2022/07/02 00:58:52;;;;;;;;;;;16.40;74.50;;;;;;5071825;28;19908;-58
2022/07/02 01:01:17;;;;;;;;;;;16.40;74.20;;;;;;5064713;28;20511;-59
2022/07/02 01:03:45;;;;;;;;;;;16.40;74.50;;;;;;5071488;28;19915;-58
2022/07/02 01:06:11;;;;;;;;;;;16.40;74.00;;;;;;5066586;28;19913;-58
2022/07/02 01:11:22;;;;;;;;;;;16.40;74.20;;;;;;5071576;28;19965;-58
2022/07/02 01:13:47;;;;;;;;;;;16.40;74.60;;;;;;5071349;28;19912;-58
2022/07/02 01:16:13;;;;;;;;;;;16.40;74.60;;;;;;5071360;28;19942;-58
2022/07/02 01:18:38;;;;;;;;;;;16.40;75.20;;;;;;5072052;28;19955;-59
2022/07/02 01:21:04;;;;;;;;;;;16.30;74.80;;;;;;5071017;28;20335;-58
2022/07/02 01:23:30;;;;;;;;;;;16.30;74.40;;;;;;5070882;28;20345;-59
2022/07/02 01:25:55;;;;;;;;;;;16.30;74.20;;;;;;5070963;28;19909;-58
2022/07/02 01:28:21;;;;;;;;;;;16.30;74.80;;;;;;5071491;28;19962;-58
2022/07/02 01:30:47;;;;;;;;;;;16.30;76.70;;;;;;5070347;28;19978;-58
2022/07/02 01:33:13;;;;;;;;;;;16.20;77.30;;;;;;5069874;28;20249;-59
2022/07/02 01:35:38;;;;;;;;;;;16.10;76.80;;;;;;5070936;28;19923;-59
2022/07/02 01:38:04;;;;;;;;;;;16.10;77.40;;;;;;5070681;28;19912;-58
2022/07/02 01:40:29;;;;;;;;;;;16.10;76.90;;;;;;5071096;28;20394;-58
2022/07/02 01:42:55;;;;;;;;;;;16.10;75.70;;;;;;5065311;28;19908;-58
2022/07/02 01:45:20;;;;;;;;;;;16.00;76.80;;;;;;5070919;28;19967;-59
2022/07/02 01:47:46;;;;;;;;;;;16.00;77.10;;;;;;5070967;28;19927;-59
2022/07/02 01:50:11;;;;;;;;;;;16.00;77.50;;;;;;5068548;28;19912;-60
2022/07/02 01:52:37;;;;;;;;;;;15.90;78.70;;;;;;5070858;28;19954;-60
2022/07/02 01:55:03;;;;;;;;;;;15.90;78.50;;;;;;5070545;28;19915;-59
2022/07/02 01:57:33;;;;;;;;;;;15.90;78.60;;;;;;5070719;28;19912;-60
2022/07/02 01:59:59;;;;;;;;;;;15.90;78.70;;;;;;5070245;28;19909;-60
2022/07/02 02:02:24;;;;;;;;;;;15.80;78.90;;;;;;5070904;28;19919;-60
2022/07/02 02:04:50;;;;;;;;;;;15.80;79.30;;;;;;5070563;28;19912;-60
2022/07/02 02:07:15;;;;;;;;;;;15.70;79.50;;;;;;5070477;28;19919;-60
2022/07/02 02:09:41;;;;;;;;;;;15.70;79.20;;;;;;5070548;28;19909;-59
2022/07/02 02:12:06;;;;;;;;;;;15.70;79.90;;;;;;5068099;28;19956;-60
2022/07/02 02:14:32;;;;;;;;;;;15.70;79.20;;;;;;5070723;28;19909;-60
2022/07/02 02:16:58;;;;;;;;;;;15.60;79.70;;;;;;5070630;28;19917;-60
2022/07/02 02:19:23;;;;;;;;;;;15.70;80.30;;;;;;5070342;28;19908;-60
2022/07/02 02:21:49;;;;;;;;;;;15.60;80.40;;;;;;5070003;28;19908;-59
2022/07/02 02:24:15;;;;;;;;;;;15.60;80.20;;;;;;5045752;28;20004;-60
2022/07/02 02:26:41;;;;;;;;;;;15.60;81.20;;;;;;5071154;28;19916;-60
2022/07/02 02:29:06;;;;;;;;;;;15.60;80.40;;;;;;5070735;28;20402;-59
2022/07/02 02:31:32;;;;;;;;;;;15.60;80.00;;;;;;5070447;28;19909;-60
2022/07/02 02:33:57;;;;;;;;;;;15.50;80.50;;;;;;5070317;28;20292;-60
2022/07/02 02:36:23;;;;;;;;;;;15.50;80.30;;;;;;5069986;28;19917;-59
2022/07/02 02:38:48;;;;;;;;;;;15.50;80.80;;;;;;5070508;28;19991;-59
2022/07/02 02:41:14;;;;;;;;;;;15.40;80.40;;;;;;5070219;28;19913;-59
2022/07/02 02:43:40;;;;;;;;;;;15.40;80.50;;;;;;5052401;28;19909;-59
2022/07/02 02:46:06;;;;;;;;;;;15.40;81.00;;;;;;5070449;28;19920;-60
2022/07/02 02:48:33;;;;;;;;;;;15.40;80.90;;;;;;5069950;28;20372;-60
2022/07/02 02:50:58;;;;;;;;;;;15.30;81.30;;;;;;5070307;28;19962;-60
2022/07/02 02:53:24;;;;;;;;;;;15.30;80.50;;;;;;5070251;28;19912;-60
2022/07/02 02:55:49;;;;;;;;;;;15.30;80.20;;;;;;5070097;28;19959;-60
2022/07/02 02:58:15;;;;;;;;;;;15.30;81.50;;;;;;5070322;28;19916;-60
2022/07/02 03:00:41;;;;;;;;;;;15.30;81.60;;;;;;5070531;28;19912;-60
2022/07/02 03:03:06;;;;;;;;;;;15.30;80.60;;;;;;5064641;28;19908;-60
2022/07/02 03:05:32;;;;;;;;;;;15.30;80.30;;;;;;5062864;28;20407;-59
2022/07/02 03:07:57;;;;;;;;;;;15.30;81.10;;;;;;5070103;28;19908;-60
2022/07/02 03:10:23;;;;;;;;;;;15.20;81.80;;;;;;5070257;28;19915;-59
2022/07/02 03:12:48;;;;;;;;;;;15.20;82.30;;;;;;5073957;28;20332;-60
2022/07/02 03:15:14;;;;;;;;;;;15.10;82.50;;;;;;5073637;28;19919;-59
2022/07/02 03:17:39;;;;;;;;;;;15.10;83.20;;;;;;5073928;28;20372;-60
2022/07/02 03:20:05;;;;;;;;;;;15.10;83.30;;;;;;5072889;28;19908;-59
2022/07/02 03:22:30;;;;;;;;;;;15.00;82.90;;;;;;5072734;28;19912;-60
2022/07/02 03:24:56;;;;;;;;;;;15.00;84.00;;;;;;5073551;28;19912;-59
2022/07/02 03:27:22;;;;;;;;;;;15.00;83.90;;;;;;5073331;28;19958;-59
2022/07/02 03:29:47;;;;;;;;;;;15.00;83.60;;;;;;5073607;28;20435;-60
2022/07/02 03:32:13;;;;;;;;;;;15.00;83.50;;;;;;5073567;28;20553;-60
2022/07/02 03:34:39;;;;;;;;;;;14.90;84.00;;;;;;5072802;28;19908;-60
2022/07/02 03:37:04;;;;;;;;;;;14.90;84.30;;;;;;5073622;28;20016;-60
2022/07/02 03:39:29;;;;;;;;;;;14.90;85.00;;;;;;5073517;28;19908;-60
2022/07/02 03:41:55;;;;;;;;;;;14.80;85.10;;;;;;5069337;28;19920;-60
2022/07/02 03:44:20;;;;;;;;;;;14.80;84.80;;;;;;5069690;28;20433;-60
2022/07/02 03:46:46;;;;;;;;;;;14.80;85.50;;;;;;5073185;28;19920;-59
2022/07/02 03:49:11;;;;;;;;;;;14.80;85.40;;;;;;5072469;28;20253;-60
2022/07/02 03:51:37;;;;;;;;;;;14.70;84.60;;;;;;5073300;28;19935;-60
2022/07/02 03:54:02;;;;;;;;;;;14.70;85.20;;;;;;5072609;28;19996;-60
2022/07/02 03:56:28;;;;;;;;;;;14.70;87.00;;;;;;5072957;28;20089;-58
2022/07/02 03:58:54;;;;;;;;;;;14.70;87.50;;;;;;5072801;28;19909;-60
2022/07/02 04:01:19;;;;;;;;;;;14.60;88.10;;;;;;5072877;28;19912;-60
2022/07/02 04:03:44;;;;;;;;;;;14.60;88.20;;;;;;5072622;28;20368;-60
2022/07/02 04:06:10;;;;;;;;;;;14.60;87.40;;;;;;5072886;28;19916;-60
2022/07/02 04:08:35;;;;;;;;;;;14.50;88.10;;;;;;5072397;28;19918;-60
2022/07/02 04:11:01;;;;;;;;;;;14.60;88.20;;;;;;5072409;28;19919;-59
2022/07/02 04:13:27;;;;;;;;;;;14.60;87.50;;;;;;5072884;28;19916;-60
2022/07/02 04:15:52;;;;;;;;;;;14.50;88.60;;;;;;5071879;28;19920;-60
2022/07/02 04:18:18;;;;;;;;;;;14.50;89.50;;;;;;5072787;28;19930;-60
2022/07/02 04:20:44;;;;;;;;;;;14.50;89.10;;;;;;5067617;28;19962;-60
2022/07/02 04:23:09;;;;;;;;;;;14.50;88.90;;;;;;5071069;28;20364;-60
2022/07/02 04:25:35;;;;;;;;;;;14.40;88.10;;;;;;5072482;28;19915;-59
2022/07/02 04:28:00;;;;;;;;;;;14.40;88.00;;;;;;5071944;28;20376;-59
2022/07/02 04:30:26;;;;;;;;;;;14.50;88.70;;;;;;5072024;28;20292;-60
2022/07/02 04:32:51;;;;;;;;;;;14.40;87.70;;;;;;5072203;28;19963;-60
2022/07/02 04:35:17;;;;;;;;;;;14.40;87.70;;;;;;5072257;28;19973;-60
2022/07/02 04:37:43;;;;;;;;;;;14.50;87.60;;;;;;5072124;28;19915;-60
2022/07/02 04:40:08;;;;;;;;;;;14.50;87.20;;;;;;5072237;28;19912;-59
2022/07/02 04:42:34;;;;;;;;;;;14.50;87.40;;;;;;5072047;28;20437;-60
2022/07/02 04:44:59;;;;;;;;;;;14.50;86.90;;;;;;5071807;28;19908;-59
2022/07/02 04:47:25;;;;;;;;;;;14.60;87.80;;;;;;5071167;28;19927;-59
2022/07/02 04:49:50;;;;;;;;;;;14.60;86.50;;;;;;5071948;28;19956;-59
2022/07/02 04:52:15;;;;;;;;;;;14.70;86.90;;;;;;5071958;28;20304;-58
2022/07/02 04:54:41;;;;;;;;;;;14.80;87.60;;;;;;5071735;28;19920;-59
2022/07/02 04:57:07;;;;;;;;;;;14.90;87.50;;;;;;5065209;28;19916;-59
2022/07/02 04:59:33;;;;;;;;;;;14.90;87.50;;;;;;5071641;28;19912;-59
2022/07/02 05:01:59;;;;;;;;;;;15.00;86.50;;;;;;5065023;28;19995;-58
2022/07/02 05:04:24;;;;;;;;;;;15.00;87.90;;;;;;5071603;28;19913;-59
2022/07/02 05:06:50;;;;;;;;;;;15.10;87.20;;;;;;5071397;28;19913;-59
2022/07/02 05:09:15;;;;;;;;;;;15.20;85.90;;;;;;5071638;28;19909;-59
2022/07/02 05:11:41;;;;;;;;;;;15.30;86.10;;;;;;5071326;28;20007;-59
2022/07/02 05:14:06;;;;;;;;;;;15.40;86.80;;;;;;5071000;28;19912;-59
2022/07/02 05:16:32;;;;;;;;;;;15.50;86.50;;;;;;5069170;28;19970;-60
2022/07/02 05:18:57;;;;;;;;;;;15.60;86.40;;;;;;5071586;28;19909;-59
2022/07/02 05:21:23;;;;;;;;;;;15.70;86.20;;;;;;5071642;28;19934;-59
2022/07/02 05:23:48;;;;;;;;;;;15.80;86.50;;;;;;5071160;28;19916;-58
2022/07/02 05:26:14;;;;;;;;;;;15.80;87.00;;;;;;5071155;28;19917;-59
2022/07/02 05:28:39;;;;;;;;;;;15.90;86.60;;;;;;5071479;28;19908;-59
2022/07/02 05:31:05;;;;;;;;;;;16.00;87.50;;;;;;5070670;28;20292;-59
2022/07/02 05:33:30;;;;;;;;;;;16.10;87.70;;;;;;5070169;28;19909;-59
2022/07/02 05:35:56;;;;;;;;;;;16.10;87.00;;;;;;5070705;28;20081;-59
2022/07/02 05:38:21;;;;;;;;;;;16.20;87.40;;;;;;5069905;28;19912;-60
2022/07/02 05:40:47;;;;;;;;;;;16.30;86.60;;;;;;5064712;28;20357;-59
2022/07/02 05:43:13;;;;;;;;;;;16.30;86.60;;;;;;5070871;28;19915;-58
2022/07/02 05:45:38;;;;;;;;;;;16.30;87.10;;;;;;5070608;28;19915;-59
2022/07/02 05:48:04;;;;;;;;;;;16.40;87.30;;;;;;5070111;28;19921;-59
2022/07/02 05:50:29;;;;;;;;;;;16.50;86.90;;;;;;5070672;28;20300;-59
2022/07/02 05:52:55;;;;;;;;;;;16.50;86.50;;;;;;5070535;28;19997;-60
2022/07/02 05:55:20;;;;;;;;;;;16.50;86.10;;;;;;5063100;28;19908;-60
2022/07/02 05:57:46;;;;;;;;;;;16.60;86.10;;;;;;5070534;28;19908;-59
2022/07/02 06:00:11;;;;;;;;;;;16.60;86.00;;;;;;5070808;28;19912;-60
2022/07/02 06:02:37;;;;;;;;;;;16.60;86.60;;;;;;5070680;28;20434;-59
2022/07/02 06:07:47;;;;;;;;;;;16.70;86.40;;;;;;5070544;28;19978;-59
2022/07/02 06:10:18;;;;;;;;;;;16.80;86.20;;;;;;5070551;28;19947;-60
2022/07/02 06:12:47;;;;;;;;;;;16.80;86.30;;;;;;5070012;28;20393;-60
2022/07/02 06:15:13;;;;;;;;;;;16.90;86.90;;;;;;5070909;28;20270;-59
2022/07/02 06:17:38;;;;;;;;;;;16.90;86.00;;;;;;5080178;28;19927;-57
2022/07/02 06:20:04;;;;;;;;;;;16.90;86.10;;;;;;5070283;28;20392;-71
2022/07/02 06:22:29;;;;;;;;;;;17.00;86.20;;;;;;5070651;28;19920;-64
2022/07/02 06:24:55;;;;;;;;;;;17.00;86.10;;;;;;5070503;28;19915;-66
2022/07/02 06:27:21;;;;;;;;;;;17.10;86.90;;;;;;5070252;28;19963;-64
2022/07/02 06:29:48;;;;;;;;;;;17.10;86.30;;;;;;5070075;28;20434;-65
2022/07/02 06:32:15;;;;;;;;;;;17.20;86.50;;;;;;5070308;28;19908;-66
2022/07/02 06:34:41;;;;;;;;;;;17.20;86.20;;;;;;5070245;28;19970;-63
2022/07/02 06:37:06;;;;;;;;;;;17.30;86.20;;;;;;5070322;28;20380;-65
2022/07/02 06:39:32;;;;;;;;;;;17.30;86.30;;;;;;5069843;28;20279;-67
2022/07/02 06:44:41;;;;;;;;;;;17.40;86.10;;;;;;5070725;28;19940;-66
2022/07/02 06:47:07;;;;;;;;;;;17.50;86.10;;;;;;5077833;28;20381;-65
2022/07/02 06:49:32;;;;;;;;;;;17.50;86.30;;;;;;5074230;28;19908;-63
2022/07/02 06:51:58;;;;;;;;;;;17.60;86.10;;;;;;5073839;28;19916;-62
2022/07/02 06:54:23;;;;;;;;;;;17.60;86.00;;;;;;5073772;28;19909;-65
2022/07/02 06:56:49;;;;;;;;;;;17.70;86.10;;;;;;5072847;28;20015;-66
2022/07/02 06:59:14;;;;;;;;;;;17.70;86.20;;;;;;5072551;28;20032;-65
2022/07/02 07:01:40;;;;;;;;;;;17.80;86.20;;;;;;5072220;28;19912;-64
2022/07/02 07:04:06;;;;;;;;;;;17.80;86.20;;;;;;5073528;28;19909;-65
2022/07/02 07:06:35;;;;;;;;;;;17.90;86.20;;;;;;5073729;28;19989;-63
2022/07/02 07:09:01;;;;;;;;;;;18.00;86.10;;;;;;5073970;28;19912;-64
2022/07/02 07:11:26;;;;;;;;;;;18.00;86.00;;;;;;5072772;28;19916;-65
2022/07/02 07:13:52;;;;;;;;;;;18.00;86.00;;;;;;5073535;28;19998;-65
2022/07/02 07:16:17;;;;;;;;;;;18.10;86.00;;;;;;5073360;28;19917;-63
2022/07/02 07:18:55;;;;;;;;;;;18.20;86.00;;;;;;5073336;28;19909;-64
2022/07/02 07:21:20;;;;;;;;;;;18.20;86.00;;;;;;5072981;28;19967;-64
2022/07/02 07:23:46;;;;;;;;;;;18.30;86.00;;;;;;5073182;28;19917;-64
2022/07/02 07:26:11;;;;;;;;;;;18.40;86.10;;;;;;5073572;28;20406;-63
2022/07/02 07:28:37;;;;;;;;;;;18.40;85.90;;;;;;5073194;28;19917;-64
2022/07/02 07:31:02;;;;;;;;;;;18.50;86.10;;;;;;5072983;28;20428;-65
2022/07/02 07:33:28;;;;;;;;;;;18.50;85.70;;;;;;5072957;28;19915;-65
2022/07/02 07:35:53;;;;;;;;;;;18.60;85.60;;;;;;5072708;28;19916;-65
2022/07/02 07:38:19;;;;;;;;;;;18.70;85.10;;;;;;5072562;28;19954;-64
2022/07/02 07:40:44;;;;;;;;;;;18.70;85.10;;;;;;5065855;28;19995;-63
2022/07/02 07:43:10;;;;;;;;;;;18.70;85.30;;;;;;5073033;28;19912;-64
2022/07/02 07:45:35;;;;;;;;;;;18.80;84.80;;;;;;5072395;28;19912;-64
2022/07/02 07:48:01;;;;;;;;;;;18.80;84.70;;;;;;5051950;28;20007;-63
2022/07/02 07:50:26;;;;;;;;;;;18.90;84.40;;;;;;5051128;28;19909;-64
2022/07/02 07:52:52;;;;;;;;;;;18.90;83.90;;;;;;5049833;28;20071;-64
2022/07/02 07:55:17;;;;;;;;;;;19.00;84.40;;;;;;5059398;28;19986;-64
2022/07/02 07:57:43;;;;;;;;;;;19.00;83.40;;;;;;5058897;28;19924;-64
2022/07/02 08:00:08;;;;;;;;;;;19.10;82.80;;;;;;5060728;28;19923;-63
2022/07/02 08:02:34;;;;;;;;;;;19.10;82.90;;;;;;5061183;28;19909;-65
2022/07/02 08:04:59;;;;;;;;;;;19.10;82.70;;;;;;5052692;28;20012;-64
2022/07/02 08:07:25;;;;;;;;;;;19.20;82.60;;;;;;5051695;28;19990;-63
2022/07/02 08:09:54;;;;;;;;;;;19.30;82.50;;;;;;5051101;28;19916;-64
2022/07/02 08:12:20;;;;;;;;;;;19.30;82.20;;;;;;5052306;28;19952;-64
2022/07/02 08:14:46;;;;;;;;;;;19.30;81.50;;;;;;5052578;28;19924;-63
2022/07/02 08:17:11;;;;;;;;;;;19.40;80.80;;;;;;5052006;28;20426;-63
2022/07/02 08:19:37;;;;;;;;;;;19.40;80.80;;;;;;5052288;28;19913;-63
2022/07/02 08:22:02;;;;;;;;;;;19.50;80.80;;;;;;5050152;28;19916;-64
2022/07/02 08:24:29;;;;;;;;;;;19.50;80.60;;;;;;5047732;28;19935;-63
2022/07/02 08:26:54;;;;;;;;;;;19.50;81.10;;;;;;5051109;28;19916;-64
2022/07/02 08:29:20;;;;;;;;;;;19.60;81.40;;;;;;5052298;28;19916;-64
2022/07/02 08:31:45;;;;;;;;;;;19.70;81.10;;;;;;5052130;28;19909;-63
2022/07/02 08:34:11;;;;;;;;;;;19.70;81.60;;;;;;5052127;28;19913;-63
2022/07/02 08:36:36;;;;;;;;;;;19.80;79.70;;;;;;5052808;28;19928;-62
2022/07/02 08:39:02;;;;;;;;;;;19.90;79.60;;;;;;5051604;28;20293;-61
2022/07/02 08:41:28;;;;;;;;;;;19.90;79.60;;;;;;5058629;28;19920;-63
2022/07/02 08:43:55;;;;;;;;;;;20.00;79.50;;;;;;5061167;28;19912;-62
2022/07/02 08:46:21;;;;;;;;;;;20.00;78.40;;;;;;5059521;28;20377;-63
2022/07/02 08:48:48;;;;;;;;;;;20.10;77.70;;;;;;5071041;28;19909;-63
2022/07/02 08:51:13;;;;;;;;;;;20.10;77.80;;;;;;5071633;28;20332;-63
2022/07/02 08:53:40;;;;;;;;;;;20.10;77.70;;;;;;5071521;28;19954;-62
2022/07/02 08:56:07;;;;;;;;;;;20.20;77.60;;;;;;5071414;28;19920;-63
2022/07/02 08:58:34;;;;;;;;;;;20.20;77.40;;;;;;5071907;28;19909;-64
2022/07/02 09:01:00;;;;;;;;;;;20.30;77.20;;;;;;5075772;28;19913;-62
2022/07/02 09:03:25;;;;;;;;;;;20.30;76.50;;;;;;5082245;28;19912;-64
2022/07/02 09:05:51;;;;;;;;;;;20.40;76.90;;;;;;5067556;28;19969;-64
2022/07/02 09:08:18;;;;;;;;;;;20.40;76.60;;;;;;5070636;28;19913;-64
2022/07/02 09:10:43;;;;;;;;;;;20.50;75.90;;;;;;5076524;28;19974;-62
2022/07/02 09:13:11;;;;;;;;;;;20.50;75.30;;;;;;5073658;28;20335;-64
2022/07/02 09:15:37;;;;;;;;;;;20.60;75.60;;;;;;5070497;28;19935;-65
2022/07/02 09:18:02;;;;;;;;;;;20.60;75.80;;;;;;5070732;28;20471;-64
2022/07/02 09:20:28;;;;;;;;;;;20.60;75.50;;;;;;5070609;28;19948;-63
2022/07/02 09:22:53;;;;;;;;;;;20.60;75.00;;;;;;5069457;28;20029;-64
2022/07/02 09:25:20;;;;;;;;;;;20.60;75.30;;;;;;5069401;28;19913;-64
2022/07/02 09:27:46;;;;;;;;;;;20.70;74.90;;;;;;5067233;28;20403;-63
2022/07/02 09:30:14;;;;;;;;;;;20.70;75.40;;;;;;5071217;28;19962;-62
2022/07/02 09:32:40;;;;;;;;;;;20.80;74.90;;;;;;5070480;28;19915;-64
2022/07/02 09:35:06;;;;;;;;;;;20.80;74.40;;;;;;5070429;28;19912;-61
2022/07/02 09:37:32;;;;;;;;;;;20.80;73.70;;;;;;5054814;28;19928;-63
2022/07/02 09:40:02;;;;;;;;;;;20.90;73.90;;;;;;5070722;28;20407;-63
2022/07/02 09:42:32;;;;;;;;;;;20.90;74.30;;;;;;5070538;28;20291;-64
2022/07/02 09:44:58;;;;;;;;;;;20.90;74.50;;;;;;5064441;28;19919;-63
2022/07/02 09:47:31;;;;;;;;;;;20.90;74.10;;;;;;5070596;28;19974;-63
2022/07/02 09:50:00;;;;;;;;;;;20.90;73.20;;;;;;5069610;28;19920;-64
2022/07/02 09:52:26;;;;;;;;;;;21.00;72.80;;;;;;5070076;28;19909;-64
2022/07/02 09:54:51;;;;;;;;;;;21.00;73.00;;;;;;5071114;28;19962;-64
2022/07/02 09:57:17;;;;;;;;;;;21.00;72.60;;;;;;5070924;28;19916;-63
2022/07/02 09:59:42;;;;;;;;;;;21.10;72.70;;;;;;5070804;28;20376;-63
2022/07/02 10:02:24;;;;;;;;;;;21.10;73.00;;;;;;5071287;28;19916;-63
2022/07/02 10:04:50;;;;;;;;;;;21.10;73.70;;;;;;5070264;28;19915;-64
2022/07/02 10:07:16;;;;;;;;;;;21.20;74.00;;;;;;5070308;28;19991;-62
2022/07/02 10:09:42;;;;;;;;;;;21.20;72.60;;;;;;5070005;28;20437;-64
2022/07/02 10:12:08;;;;;;;;;;;21.30;71.80;;;;;;5052344;28;19908;-64
2022/07/02 10:14:34;;;;;;;;;;;21.30;71.10;;;;;;5071059;28;20015;-63
2022/07/02 10:17:01;;;;;;;;;;;21.30;70.90;;;;;;5071182;28;19927;-63
2022/07/02 10:19:28;;;;;;;;;;;21.30;70.30;;;;;;5070227;28;20369;-62
2022/07/02 10:21:54;;;;;;;;;;;21.30;71.30;;;;;;5075154;28;19954;-63
2022/07/02 10:24:21;;;;;;;;;;;21.30;71.40;;;;;;5074893;28;19908;-64
2022/07/02 10:26:47;;;;;;;;;;;21.30;70.40;;;;;;5068950;28;19917;-63
2022/07/02 10:29:13;;;;;;;;;;;21.30;70.60;;;;;;5054746;28;19913;-65
2022/07/02 10:31:41;;;;;;;;;;;21.30;70.90;;;;;;5079476;28;19909;-62
2022/07/02 10:34:19;;;;;;;;;;;21.40;70.60;;;;;;5083176;28;19912;-63
2022/07/02 10:36:44;;;;;;;;;;;21.50;70.90;;;;;;5068865;28;19920;-62
2022/07/02 10:39:14;;;;;;;;;;;21.50;70.70;;;;;;5074546;28;20281;-63
2022/07/02 10:41:40;;;;;;;;;;;21.50;70.10;;;;;;5073810;28;19909;-64
2022/07/02 10:44:08;;;;;;;;;;;21.50;70.40;;;;;;5073668;28;19943;-64
2022/07/02 10:46:34;;;;;;;;;;;21.50;70.30;;;;;;5073585;28;19921;-65
2022/07/02 10:49:00;;;;;;;;;;;21.60;70.20;;;;;;5073633;28;20280;-62
2022/07/02 10:51:27;;;;;;;;;;;21.60;70.10;;;;;;5074069;28;19912;-62
2022/07/02 10:53:56;;;;;;;;;;;21.60;70.30;;;;;;5073707;28;19913;-62
2022/07/02 10:56:23;;;;;;;;;;;21.70;70.10;;;;;;5067941;28;19917;-63
2022/07/02 10:58:49;;;;;;;;;;;21.70;69.70;;;;;;5073339;28;19947;-62
2022/07/02 11:01:16;;;;;;;;;;;21.80;70.20;;;;;;5074696;28;19959;-60
2022/07/02 11:03:53;;;;;;;;;;;21.80;69.20;;;;;;5080796;28;19916;-62
2022/07/02 11:06:20;;;;;;;;;;;21.80;69.40;;;;;;5076828;28;19909;-62
2022/07/02 11:08:47;;;;;;;;;;;21.90;68.60;;;;;;5073604;28;19913;-61
2022/07/02 11:11:12;;;;;;;;;;;21.90;68.40;;;;;;5078786;28;19991;-61
2022/07/02 11:13:44;;;;;;;;;;;21.90;67.20;;;;;;5073582;28;20016;-61
2022/07/02 11:16:19;;;;;;;;;;;21.90;68.00;;;;;;5072866;28;19920;-61
2022/07/02 11:18:46;;;;;;;;;;;21.90;68.50;;;;;;5072629;28;19916;-61
2022/07/02 11:21:12;;;;;;;;;;;21.90;68.40;;;;;;5073583;28;19915;-62
2022/07/02 11:23:38;;;;;;;;;;;22.00;68.20;;;;;;5073076;28;19913;-62
2022/07/02 11:26:04;;;;;;;;;;;22.00;67.80;;;;;;5072903;28;19962;-62
2022/07/02 11:28:29;;;;;;;;;;;21.90;68.30;;;;;;5073039;28;19952;-59
2022/07/02 11:30:58;;;;;;;;;;;21.90;68.60;;;;;;5072656;28;19958;-59
2022/07/02 11:33:24;;;;;;;;;;;21.90;68.20;;;;;;5072187;28;19916;-59
2022/07/02 11:35:52;;;;;;;;;;;21.90;68.30;;;;;;5073030;28;20339;-59
2022/07/02 11:38:18;;;;;;;;;;;22.00;67.30;;;;;;5054921;28;19954;-60
2022/07/02 11:40:44;;;;;;;;;;;22.10;68.00;;;;;;5073081;28;19917;-60
2022/07/02 11:43:13;;;;;;;;;;;22.10;68.40;;;;;;5065935;28;19908;-59
2022/07/02 11:45:45;;;;;;;;;;;22.20;67.40;;;;;;5072127;28;19908;-60
2022/07/02 11:48:18;;;;;;;;;;;22.30;67.00;;;;;;5066298;28;19920;-60
2022/07/02 11:50:43;;;;;;;;;;;22.40;67.00;;;;;;5066301;28;19908;-60
2022/07/02 11:53:09;;;;;;;;;;;22.50;67.20;;;;;;5072595;28;19962;-61
2022/07/02 11:55:34;;;;;;;;;;;22.50;67.20;;;;;;5072788;28;20407;-60
2022/07/02 11:58:00;;;;;;;;;;;22.60;67.00;;;;;;5072637;28;19917;-60
2022/07/02 12:00:30;;;;;;;;;;;22.60;65.70;;;;;;5072021;28;19951;-60
2022/07/02 12:02:55;;;;;;;;;;;22.60;65.90;;;;;;5072292;28;19917;-61
2022/07/02 12:05:21;;;;;;;;;;;22.60;66.10;;;;;;5065794;28;19909;-61
2022/07/02 12:07:46;;;;;;;;;;;22.50;66.20;;;;;;5076828;28;20010;-61
2022/07/02 12:10:13;;;;;;;;;;;22.50;65.90;;;;;;5081143;28;20460;-61
2022/07/02 12:12:38;;;;;;;;;;;22.50;65.90;;;;;;5072170;28;19909;-61
2022/07/02 12:15:04;;;;;;;;;;;22.50;65.70;;;;;;5071805;28;19916;-61
2022/07/02 12:17:30;;;;;;;;;;;22.50;66.10;;;;;;5071987;28;19923;-61
2022/07/02 12:19:56;;;;;;;;;;;22.50;66.20;;;;;;5072572;28;19963;-61
2022/07/02 12:22:25;;;;;;;;;;;22.60;66.00;;;;;;5071837;28;19940;-60
2022/07/02 12:24:51;;;;;;;;;;;22.60;65.70;;;;;;5071907;28;20050;-62
2022/07/02 12:27:17;;;;;;;;;;;22.80;65.80;;;;;;5072109;28;20038;-59
2022/07/02 12:29:58;;;;;;;;;;;22.80;65.50;;;;;;5068399;28;20907;-62
2022/07/02 12:32:25;;;;;;;;;;;22.80;65.60;;;;;;5071943;28;19908;-61
2022/07/02 12:34:52;;;;;;;;;;;22.80;65.70;;;;;;5071733;28;20166;-62
2022/07/02 12:37:25;;;;;;;;;;;22.80;63.80;;;;;;5071407;28;19974;-63
2022/07/02 12:40:01;;;;;;;;;;;22.80;64.80;;;;;;5071906;28;19908;-63
2022/07/02 12:42:28;;;;;;;;;;;22.80;65.40;;;;;;5071585;28;19909;-61
2022/07/02 12:44:53;;;;;;;;;;;22.80;63.00;;;;;;5079344;28;20365;-62
2022/07/02 12:47:26;;;;;;;;;;;22.90;63.50;;;;;;5071278;28;19941;-61
2022/07/02 12:49:52;;;;;;;;;;;22.90;63.60;;;;;;5065751;28;20435;-61
2022/07/02 12:52:18;;;;;;;;;;;22.80;63.00;;;;;;5071482;28;19931;-62
2022/07/02 12:54:43;;;;;;;;;;;22.80;63.80;;;;;;5073875;28;20387;-61
2022/07/02 12:57:12;;;;;;;;;;;22.80;63.60;;;;;;5070442;28;19927;-64
2022/07/02 12:59:38;;;;;;;;;;;22.90;64.30;;;;;;5061287;28;19933;-62
2022/07/02 13:02:04;;;;;;;;;;;23.10;63.50;;;;;;5063763;28;19912;-63
2022/07/02 13:04:29;;;;;;;;;;;23.20;63.90;;;;;;5069461;28;20385;-63
2022/07/02 13:06:55;;;;;;;;;;;23.30;63.40;;;;;;5068651;28;19913;-62
2022/07/02 13:09:21;;;;;;;;;;;23.30;63.20;;;;;;5067433;28;19958;-63
2022/07/02 13:11:47;;;;;;;;;;;23.30;63.50;;;;;;5068330;28;20670;-64
2022/07/02 13:14:12;;;;;;;;;;;23.40;63.50;;;;;;5065286;28;20625;-63
2022/07/02 13:16:38;;;;;;;;;;;23.40;63.90;;;;;;5066586;28;20355;-62
2022/07/02 13:19:03;;;;;;;;;;;23.40;63.00;;;;;;5060240;28;19920;-62
2022/07/02 13:21:29;;;;;;;;;;;23.30;62.90;;;;;;5068195;28;20293;-61
2022/07/02 13:23:54;;;;;;;;;;;23.20;62.70;;;;;;5068544;28;19978;-65
2022/07/02 13:26:20;;;;;;;;;;;23.10;62.30;;;;;;5072066;28;19917;-61
2022/07/02 13:28:45;;;;;;;;;;;23.10;62.00;;;;;;5076140;28;19920;-62
2022/07/02 13:31:11;;;;;;;;;;;23.20;61.70;;;;;;5051519;28;19964;-63
2022/07/02 13:33:36;;;;;;;;;;;23.30;62.50;;;;;;5064806;28;19913;-63
2022/07/02 13:36:02;;;;;;;;;;;23.40;63.00;;;;;;5066182;28;19932;-63
2022/07/02 13:38:27;;;;;;;;;;;23.40;61.70;;;;;;5068312;28;19916;-62
2022/07/02 13:40:53;;;;;;;;;;;23.40;60.80;;;;;;5069092;28;20482;-61
2022/07/02 13:43:18;;;;;;;;;;;23.40;61.50;;;;;;5076337;28;19916;-61
2022/07/02 13:45:44;;;;;;;;;;;23.40;62.30;;;;;;5068046;28;19916;-63
2022/07/02 13:48:09;;;;;;;;;;;23.40;62.50;;;;;;5066899;28;19919;-62
2022/07/02 13:50:35;;;;;;;;;;;23.50;61.90;;;;;;5076266;28;20338;-63
2022/07/02 13:53:00;;;;;;;;;;;23.60;62.00;;;;;;5076533;28;19917;-63
2022/07/02 13:55:26;;;;;;;;;;;23.70;62.30;;;;;;5070686;28;20368;-62
2022/07/02 13:57:51;;;;;;;;;;;23.80;62.90;;;;;;5068189;28;20388;-63
2022/07/02 14:00:16;;;;;;;;;;;23.80;62.00;;;;;;5068443;28;19952;-63
2022/07/02 14:02:44;;;;;;;;;;;23.80;61.80;;;;;;5067832;28;20356;-64
2022/07/02 14:05:10;;;;;;;;;;;23.80;62.20;;;;;;5042057;28;19917;-62
2022/07/02 14:07:35;;;;;;;;;;;23.70;62.00;;;;;;5068332;28;20335;-64
2022/07/02 14:10:01;;;;;;;;;;;23.70;61.50;;;;;;5048028;28;20011;-64
2022/07/02 14:12:26;;;;;;;;;;;23.70;61.50;;;;;;5066959;28;19917;-63
2022/07/02 14:14:52;;;;;;;;;;;23.60;61.10;;;;;;5066155;28;19912;-63
2022/07/02 14:17:18;;;;;;;;;;;23.60;61.10;;;;;;5068560;28;19932;-64